sensor_id;sensor_type;location;lat;lon;timestamp;pressure;altitude;pressure_sealevel;temperature;humidity
63715;BME280;49858;48.956;9.076;2023-05-07T00:00:59;98649.44;;;17.78;100.00
63715;BME280;49858;48.956;9.076;2023-05-07T00:03:27;98650.66;;;17.73;100.00
63715;BME280;49858;48.956;9.076;2023-05-07T00:05:55;98642.72;;;17.75;100.00
63715;BME280;49858;48.956;9.076;2023-05-07T00:08:23;98644.09;;;18.08;100.00
63715;BME280;49858;48.956;9.076;2023-05-07T00:10:51;98639.97;;;18.31;100.00
63715;BME280;49858;48.956;9.076;2023-05-07T00:13:21;98645.31;;;18.59;100.00
63715;BME280;49858;48.956;9.076;2023-05-07T00:15:49;98645.56;;;18.76;100.00
63715;BME280;49858;48.956;9.076;2023-05-07T00:18:16;98651.25;;;18.61;100.00
63715;BME280;49858;48.956;9.076;2023-05-07T00:20:47;98654.34;;;18.26;100.00
63715;BME280;49858;48.956;9.076;2023-05-07T00:23:15;98640.06;;;18.65;100.00
63715;BME280;49858;48.956;9.076;2023-05-07T00:25:43;98640.41;;;18.74;100.00
63715;BME280;49858;48.956;9.076;2023-05-07T00:28:11;98630.81;;;18.79;100.00
63715;BME280;49858;48.956;9.076;2023-05-07T00:30:40;98630.09;;;18.71;100.00
63715;BME280;49858;48.956;9.076;2023-05-07T00:33:08;98623.69;;;18.74;100.00
63715;BME280;49858;48.956;9.076;2023-05-07T00:35:37;98622.25;;;18.55;100.00
63715;BME280;49858;48.956;9.076;2023-05-07T00:38:04;98619.38;;;18.66;100.00
63715;BME280;49858;48.956;9.076;2023-05-07T00:40:32;98626.19;;;18.58;100.00
63715;BME280;49858;48.956;9.076;2023-05-07T00:43:00;98616.59;;;18.62;100.00
63715;BME280;49858;48.956;9.076;2023-05-07T00:45:29;98617.38;;;18.22;100.00
63715;BME280;49858;48.956;9.076;2023-05-07T00:47:59;98618.16;;;18.67;100.00
63715;BME280;49858;48.956;9.076;2023-05-07T00:50:28;98621.50;;;18.51;100.00
63715;BME280;49858;48.956;9.076;2023-05-07T00:52:57;98630.66;;;17.96;100.00
63715;BME280;49858;48.956;9.076;2023-05-07T00:55:26;98625.44;;;18.02;100.00
63715;BME280;49858;48.956;9.076;2023-05-07T00:57:55;98616.25;;;18.08;100.00
63715;BME280;49858;48.956;9.076;2023-05-07T01:00:23;98606.56;;;18.31;100.00
63715;BME280;49858;48.956;9.076;2023-05-07T01:02:51;98615.59;;;18.42;100.00
63715;BME280;49858;48.956;9.076;2023-05-07T01:05:23;98613.50;;;18.53;100.00
63715;BME280;49858;48.956;9.076;2023-05-07T01:07:53;98619.63;;;18.37;100.00
63715;BME280;49858;48.956;9.076;2023-05-07T01:10:22;98610.63;;;18.64;100.00
63715;BME280;49858;48.956;9.076;2023-05-07T01:12:50;98604.06;;;18.85;100.00
63715;BME280;49858;48.956;9.076;2023-05-07T01:15:18;98610.59;;;18.71;100.00
63715;BME280;49858;48.956;9.076;2023-05-07T01:17:46;98607.81;;;18.71;100.00
63715;BME280;49858;48.956;9.076;2023-05-07T01:20:22;98611.16;;;18.48;100.00
63715;BME280;49858;48.956;9.076;2023-05-07T01:22:54;98610.22;;;18.65;100.00
63715;BME280;49858;48.956;9.076;2023-05-07T01:25:23;98600.25;;;18.23;100.00
63715;BME280;49858;48.956;9.076;2023-05-07T01:27:55;98611.66;;;17.84;100.00
63715;BME280;49858;48.956;9.076;2023-05-07T01:30:27;98605.97;;;17.25;100.00
63715;BME280;49858;48.956;9.076;2023-05-07T01:32:59;98604.91;;;16.65;100.00
63715;BME280;49858;48.956;9.076;2023-05-07T01:35:33;98611.25;;;16.55;100.00
63715;BME280;49858;48.956;9.076;2023-05-07T01:38:04;98603.31;;;16.64;100.00
63715;BME280;49858;48.956;9.076;2023-05-07T01:40:33;98606.53;;;16.52;100.00
63715;BME280;49858;48.956;9.076;2023-05-07T01:43:02;98612.06;;;16.59;100.00
63715;BME280;49858;48.956;9.076;2023-05-07T01:45:32;98617.63;;;16.73;100.00
63715;BME280;49858;48.956;9.076;2023-05-07T01:48:02;98613.22;;;16.79;100.00
63715;BME280;49858;48.956;9.076;2023-05-07T01:50:31;98612.84;;;16.81;100.00
63715;BME280;49858;48.956;9.076;2023-05-07T01:53:01;98608.00;;;17.14;100.00
63715;BME280;49858;48.956;9.076;2023-05-07T01:55:30;98605.66;;;17.01;100.00
63715;BME280;49858;48.956;9.076;2023-05-07T01:57:58;98607.06;;;17.45;100.00
63715;BME280;49858;48.956;9.076;2023-05-07T02:00:26;98605.38;;;17.66;100.00
63715;BME280;49858;48.956;9.076;2023-05-07T02:02:54;98610.81;;;16.99;100.00
63715;BME280;49858;48.956;9.076;2023-05-07T02:05:34;98621.94;;;15.99;100.00
63715;BME280;49858;48.956;9.076;2023-05-07T02:08:11;98614.44;;;16.75;100.00
63715;BME280;49858;48.956;9.076;2023-05-07T02:10:41;98617.38;;;17.48;100.00
63715;BME280;49858;48.956;9.076;2023-05-07T02:13:09;98611.03;;;17.48;100.00
63715;BME280;49858;48.956;9.076;2023-05-07T02:15:37;98619.97;;;17.87;100.00
63715;BME280;49858;48.956;9.076;2023-05-07T02:18:06;98616.09;;;17.63;100.00
63715;BME280;49858;48.956;9.076;2023-05-07T02:20:34;98609.44;;;17.47;100.00
63715;BME280;49858;48.956;9.076;2023-05-07T02:23:02;98613.31;;;17.71;100.00
63715;BME280;49858;48.956;9.076;2023-05-07T02:25:30;98622.25;;;18.07;100.00
63715;BME280;49858;48.956;9.076;2023-05-07T02:27:59;98618.69;;;18.03;100.00
63715;BME280;49858;48.956;9.076;2023-05-07T02:30:47;98619.66;;;17.75;100.00
63715;BME280;49858;48.956;9.076;2023-05-07T02:33:15;98624.63;;;18.05;100.00
63715;BME280;49858;48.956;9.076;2023-05-07T02:35:43;98615.41;;;18.15;100.00
63715;BME280;49858;48.956;9.076;2023-05-07T02:38:13;98619.06;;;18.05;100.00
63715;BME280;49858;48.956;9.076;2023-05-07T02:40:41;98612.91;;;17.69;100.00
63715;BME280;49858;48.956;9.076;2023-05-07T02:43:10;98614.31;;;17.25;100.00
63715;BME280;49858;48.956;9.076;2023-05-07T02:45:42;98612.53;;;17.63;100.00
63715;BME280;49858;48.956;9.076;2023-05-07T02:48:11;98611.25;;;17.82;100.00
63715;BME280;49858;48.956;9.076;2023-05-07T02:50:40;98617.25;;;17.77;100.00
63715;BME280;49858;48.956;9.076;2023-05-07T02:53:07;98609.75;;;17.67;100.00
63715;BME280;49858;48.956;9.076;2023-05-07T02:55:35;98600.69;;;17.48;100.00
63715;BME280;49858;48.956;9.076;2023-05-07T02:58:03;98601.94;;;18.10;100.00
63715;BME280;49858;48.956;9.076;2023-05-07T03:00:35;98595.41;;;17.72;100.00
63715;BME280;49858;48.956;9.076;2023-05-07T03:03:23;98596.19;;;17.69;100.00
63715;BME280;49858;48.956;9.076;2023-05-07T03:05:51;98592.69;;;17.57;100.00
63715;BME280;49858;48.956;9.076;2023-05-07T03:08:19;98589.78;;;17.82;100.00
63715;BME280;49858;48.956;9.076;2023-05-07T03:10:47;98600.13;;;17.82;100.00
63715;BME280;49858;48.956;9.076;2023-05-07T03:13:14;98598.69;;;17.56;100.00
63715;BME280;49858;48.956;9.076;2023-05-07T03:15:44;98593.97;;;17.46;100.00
63715;BME280;49858;48.956;9.076;2023-05-07T03:18:12;98585.16;;;17.58;100.00
63715;BME280;49858;48.956;9.076;2023-05-07T03:20:40;98585.63;;;17.42;100.00
63715;BME280;49858;48.956;9.076;2023-05-07T03:23:08;98580.84;;;17.46;100.00
63715;BME280;49858;48.956;9.076;2023-05-07T03:25:35;98578.03;;;17.53;100.00
63715;BME280;49858;48.956;9.076;2023-05-07T03:28:03;98588.97;;;17.08;100.00
63715;BME280;49858;48.956;9.076;2023-05-07T03:30:39;98594.59;;;16.62;100.00
63715;BME280;49858;48.956;9.076;2023-05-07T03:33:08;98587.47;;;16.57;100.00
63715;BME280;49858;48.956;9.076;2023-05-07T03:35:36;98584.66;;;16.68;100.00
63715;BME280;49858;48.956;9.076;2023-05-07T03:38:05;98586.66;;;16.60;100.00
63715;BME280;49858;48.956;9.076;2023-05-07T03:40:34;98585.13;;;16.38;100.00
63715;BME280;49858;48.956;9.076;2023-05-07T03:43:03;98585.13;;;15.95;100.00
63715;BME280;49858;48.956;9.076;2023-05-07T03:45:34;98573.22;;;16.34;100.00
63715;BME280;49858;48.956;9.076;2023-05-07T03:48:25;98580.75;;;16.19;100.00
63715;BME280;49858;48.956;9.076;2023-05-07T03:50:57;98583.91;;;15.82;100.00
63715;BME280;49858;48.956;9.076;2023-05-07T03:53:29;98592.63;;;15.98;100.00
63715;BME280;49858;48.956;9.076;2023-05-07T03:55:57;98585.06;;;15.74;100.00
63715;BME280;49858;48.956;9.076;2023-05-07T03:58:26;98605.69;;;15.87;100.00
63715;BME280;49858;48.956;9.076;2023-05-07T04:00:57;98589.78;;;15.59;100.00
63715;BME280;49858;48.956;9.076;2023-05-07T04:03:29;98602.81;;;15.51;100.00
63715;BME280;49858;48.956;9.076;2023-05-07T04:05:59;98593.44;;;15.92;100.00
63715;BME280;49858;48.956;9.076;2023-05-07T04:08:26;98607.31;;;16.20;100.00
63715;BME280;49858;48.956;9.076;2023-05-07T04:10:55;98602.94;;;16.08;100.00
63715;BME280;49858;48.956;9.076;2023-05-07T04:13:25;98608.47;;;16.51;100.00
63715;BME280;49858;48.956;9.076;2023-05-07T04:15:54;98609.28;;;16.77;100.00
63715;BME280;49858;48.956;9.076;2023-05-07T04:18:23;98612.06;;;16.48;100.00
63715;BME280;49858;48.956;9.076;2023-05-07T04:20:52;98615.25;;;16.22;100.00
63715;BME280;49858;48.956;9.076;2023-05-07T04:23:20;98614.06;;;16.26;100.00
63715;BME280;49858;48.956;9.076;2023-05-07T04:25:48;98609.31;;;16.34;100.00
63715;BME280;49858;48.956;9.076;2023-05-07T04:28:28;98612.47;;;16.00;100.00
63715;BME280;49858;48.956;9.076;2023-05-07T04:30:57;98609.69;;;16.11;100.00
63715;BME280;49858;48.956;9.076;2023-05-07T04:33:25;98618.41;;;16.27;100.00
63715;BME280;49858;48.956;9.076;2023-05-07T04:35:57;98620.41;;;16.27;100.00
63715;BME280;49858;48.956;9.076;2023-05-07T04:38:30;98618.41;;;16.52;100.00
63715;BME280;49858;48.956;9.076;2023-05-07T04:41:02;98627.16;;;16.44;100.00
63715;BME280;49858;48.956;9.076;2023-05-07T04:43:34;98633.47;;;16.55;100.00
63715;BME280;49858;48.956;9.076;2023-05-07T04:46:02;98631.50;;;16.77;100.00
63715;BME280;49858;48.956;9.076;2023-05-07T04:48:30;98637.44;;;16.65;100.00
63715;BME280;49858;48.956;9.076;2023-05-07T04:51:00;98631.09;;;16.60;100.00
63715;BME280;49858;48.956;9.076;2023-05-07T04:53:28;98636.28;;;16.80;100.00
63715;BME280;49858;48.956;9.076;2023-05-07T04:55:57;98631.88;;;16.79;100.00
63715;BME280;49858;48.956;9.076;2023-05-07T04:58:31;98633.88;;;16.82;100.00
63715;BME280;49858;48.956;9.076;2023-05-07T05:01:00;98635.47;;;16.90;100.00
63715;BME280;49858;48.956;9.076;2023-05-07T05:03:28;98637.34;;;17.22;100.00
63715;BME280;49858;48.956;9.076;2023-05-07T05:05:57;98640.53;;;17.24;100.00
63715;BME280;49858;48.956;9.076;2023-05-07T05:08:30;98646.41;;;17.40;100.00
63715;BME280;49858;48.956;9.076;2023-05-07T05:11:00;98652.75;;;17.44;100.00
63715;BME280;49858;48.956;9.076;2023-05-07T05:13:29;98649.59;;;17.35;100.00
63715;BME280;49858;48.956;9.076;2023-05-07T05:15:59;98649.53;;;17.56;100.00
63715;BME280;49858;48.956;9.076;2023-05-07T05:18:30;98651.09;;;17.61;100.00
63715;BME280;49858;48.956;9.076;2023-05-07T05:20:58;98656.25;;;17.62;100.00
63715;BME280;49858;48.956;9.076;2023-05-07T05:23:26;98658.22;;;17.66;100.00
63715;BME280;49858;48.956;9.076;2023-05-07T05:25:56;98662.53;;;17.88;100.00
63715;BME280;49858;48.956;9.076;2023-05-07T05:28:27;98661.25;;;18.00;100.00
63715;BME280;49858;48.956;9.076;2023-05-07T05:30:56;98669.94;;;18.09;100.00
63715;BME280;49858;48.956;9.076;2023-05-07T05:33:26;98667.50;;;18.14;100.00
63715;BME280;49858;48.956;9.076;2023-05-07T05:35:58;98661.94;;;18.14;100.00
63715;BME280;49858;48.956;9.076;2023-05-07T05:38:26;98665.41;;;18.29;100.00
63715;BME280;49858;48.956;9.076;2023-05-07T05:40:55;98667.41;;;18.32;100.00
63715;BME280;49858;48.956;9.076;2023-05-07T05:43:24;98658.50;;;18.48;100.00
63715;BME280;49858;48.956;9.076;2023-05-07T05:45:52;98667.59;;;18.04;100.00
63715;BME280;49858;48.956;9.076;2023-05-07T05:48:20;98666.38;;;18.08;100.00
63715;BME280;49858;48.956;9.076;2023-05-07T05:50:48;98669.25;;;18.50;100.00
63715;BME280;49858;48.956;9.076;2023-05-07T05:53:17;98661.63;;;18.57;100.00
63715;BME280;49858;48.956;9.076;2023-05-07T05:55:45;98660.72;;;18.68;100.00
63715;BME280;49858;48.956;9.076;2023-05-07T05:58:14;98667.16;;;18.61;100.00
63715;BME280;49858;48.956;9.076;2023-05-07T06:00:51;98657.47;;;18.31;100.00
63715;BME280;49858;48.956;9.076;2023-05-07T06:03:23;98658.03;;;18.60;100.00
63715;BME280;49858;48.956;9.076;2023-05-07T06:05:51;98668.25;;;18.78;100.00
63715;BME280;49858;48.956;9.076;2023-05-07T06:08:20;98666.81;;;18.55;100.00
63715;BME280;49858;48.956;9.076;2023-05-07T06:10:49;98671.16;;;18.63;100.00
63715;BME280;49858;48.956;9.076;2023-05-07T06:13:17;98671.53;;;18.62;100.00
63715;BME280;49858;48.956;9.076;2023-05-07T06:15:46;98679.66;;;18.42;100.00
63715;BME280;49858;48.956;9.076;2023-05-07T06:18:15;98675.41;;;18.23;100.00
63715;BME280;49858;48.956;9.076;2023-05-07T06:20:43;98677.66;;;18.46;100.00
63715;BME280;49858;48.956;9.076;2023-05-07T06:23:20;98674.41;;;18.51;100.00
63715;BME280;49858;48.956;9.076;2023-05-07T06:25:48;98679.19;;;18.99;100.00
63715;BME280;49858;48.956;9.076;2023-05-07T06:28:19;98670.38;;;19.42;100.00
63715;BME280;49858;48.956;9.076;2023-05-07T06:30:47;98669.59;;;19.38;100.00
63715;BME280;49858;48.956;9.076;2023-05-07T06:33:18;98675.31;;;19.27;100.00
63715;BME280;49858;48.956;9.076;2023-05-07T06:35:46;98671.59;;;18.55;100.00
63715;BME280;49858;48.956;9.076;2023-05-07T06:38:14;98685.22;;;18.42;100.00
63715;BME280;49858;48.956;9.076;2023-05-07T06:40:43;98679.31;;;18.85;100.00
63715;BME280;49858;48.956;9.076;2023-05-07T06:43:11;98675.63;;;18.99;100.00
63715;BME280;49858;48.956;9.076;2023-05-07T06:45:47;98673.94;;;19.05;100.00
63715;BME280;49858;48.956;9.076;2023-05-07T06:48:17;98673.66;;;18.96;100.00
63715;BME280;49858;48.956;9.076;2023-05-07T06:50:52;98676.03;;;18.97;100.00
63715;BME280;49858;48.956;9.076;2023-05-07T06:53:22;98654.97;;;19.30;100.00
63715;BME280;49858;48.956;9.076;2023-05-07T06:55:50;98661.66;;;19.02;100.00
63715;BME280;49858;48.956;9.076;2023-05-07T06:58:19;98670.41;;;18.52;100.00
63715;BME280;49858;48.956;9.076;2023-05-07T07:00:47;98668.06;;;18.96;100.00
63715;BME280;49858;48.956;9.076;2023-05-07T07:03:15;98659.97;;;19.46;100.00
63715;BME280;49858;48.956;9.076;2023-05-07T07:05:45;98663.00;;;19.89;100.00
63715;BME280;49858;48.956;9.076;2023-05-07T07:08:13;98668.34;;;20.34;100.00
63715;BME280;49858;48.956;9.076;2023-05-07T07:10:42;98667.63;;;20.57;100.00
63715;BME280;49858;48.956;9.076;2023-05-07T07:13:11;98664.31;;;21.09;100.00
63715;BME280;49858;48.956;9.076;2023-05-07T07:15:39;98658.31;;;21.31;100.00
63715;BME280;49858;48.956;9.076;2023-05-07T07:18:07;98659.56;;;21.69;100.00
63715;BME280;49858;48.956;9.076;2023-05-07T07:20:36;98661.38;;;21.60;100.00
63715;BME280;49858;48.956;9.076;2023-05-07T07:23:07;98651.75;;;21.41;100.00
63715;BME280;49858;48.956;9.076;2023-05-07T07:25:35;98658.47;;;21.63;100.00
63715;BME280;49858;48.956;9.076;2023-05-07T07:28:05;98663.22;;;22.23;100.00
63715;BME280;49858;48.956;9.076;2023-05-07T07:30:33;98657.19;;;22.40;100.00
63715;BME280;49858;48.956;9.076;2023-05-07T07:33:01;98659.84;;;23.09;99.14
63715;BME280;49858;48.956;9.076;2023-05-07T07:35:33;98656.03;;;23.03;95.56
63715;BME280;49858;48.956;9.076;2023-05-07T07:38:03;98661.69;;;23.16;96.82
63715;BME280;49858;48.956;9.076;2023-05-07T07:40:34;98656.81;;;23.04;96.25
63715;BME280;49858;48.956;9.076;2023-05-07T07:43:03;98667.06;;;23.10;93.82
63715;BME280;49858;48.956;9.076;2023-05-07T07:45:31;98658.56;;;22.81;94.49
63715;BME280;49858;48.956;9.076;2023-05-07T07:48:00;98669.88;;;22.78;96.02
63715;BME280;49858;48.956;9.076;2023-05-07T07:50:31;98672.41;;;23.05;96.02
63715;BME280;49858;48.956;9.076;2023-05-07T07:53:12;98670.28;;;23.09;95.73
63715;BME280;49858;48.956;9.076;2023-05-07T07:55:42;98678.22;;;22.98;97.20
63715;BME280;49858;48.956;9.076;2023-05-07T07:58:13;98678.44;;;22.02;100.00
63715;BME280;49858;48.956;9.076;2023-05-07T08:00:41;98674.22;;;22.13;100.00
63715;BME280;49858;48.956;9.076;2023-05-07T08:03:10;98672.72;;;23.23;99.29
63715;BME280;49858;48.956;9.076;2023-05-07T08:05:43;98667.00;;;23.97;93.35
63715;BME280;49858;48.956;9.076;2023-05-07T08:08:10;98670.56;;;23.73;91.60
63715;BME280;49858;48.956;9.076;2023-05-07T08:10:40;98669.91;;;23.52;95.81
63715;BME280;49858;48.956;9.076;2023-05-07T08:13:17;98661.84;;;24.60;88.33
63715;BME280;49858;48.956;9.076;2023-05-07T08:15:45;98665.63;;;24.79;88.50
63715;BME280;49858;48.956;9.076;2023-05-07T08:18:14;98670.31;;;25.42;84.21
63715;BME280;49858;48.956;9.076;2023-05-07T08:20:43;98666.00;;;24.81;84.58
63715;BME280;49858;48.956;9.076;2023-05-07T08:23:16;98660.97;;;24.50;87.54
63715;BME280;49858;48.956;9.076;2023-05-07T08:25:44;98666.00;;;24.55;86.37
63715;BME280;49858;48.956;9.076;2023-05-07T08:28:14;98660.63;;;24.61;84.60
63715;BME280;49858;48.956;9.076;2023-05-07T08:30:43;98668.63;;;24.37;86.23
63715;BME280;49858;48.956;9.076;2023-05-07T08:33:11;98658.38;;;24.30;88.27
63715;BME280;49858;48.956;9.076;2023-05-07T08:35:39;98659.47;;;24.07;89.88
63715;BME280;49858;48.956;9.076;2023-05-07T08:38:08;98659.38;;;24.49;85.49
63715;BME280;49858;48.956;9.076;2023-05-07T08:40:37;98660.66;;;24.95;86.31
63715;BME280;49858;48.956;9.076;2023-05-07T08:43:12;98666.41;;;24.92;86.50
63715;BME280;49858;48.956;9.076;2023-05-07T08:45:45;98664.69;;;25.42;83.44
63715;BME280;49858;48.956;9.076;2023-05-07T08:48:16;98671.53;;;25.63;82.49
63715;BME280;49858;48.956;9.076;2023-05-07T08:50:54;98672.41;;;25.94;83.30
63715;BME280;49858;48.956;9.076;2023-05-07T08:53:22;98676.34;;;26.37;77.55
63715;BME280;49858;48.956;9.076;2023-05-07T08:55:51;98679.66;;;26.94;74.83
63715;BME280;49858;48.956;9.076;2023-05-07T08:58:20;98676.38;;;26.87;75.37
63715;BME280;49858;48.956;9.076;2023-05-07T09:00:51;98672.13;;;26.73;74.02
63715;BME280;49858;48.956;9.076;2023-05-07T09:03:21;98677.78;;;26.82;70.31
63715;BME280;49858;48.956;9.076;2023-05-07T09:05:52;98679.88;;;27.27;69.57
63715;BME280;49858;48.956;9.076;2023-05-07T09:08:24;98669.91;;;26.77;68.68
63715;BME280;49858;48.956;9.076;2023-05-07T09:10:56;98675.13;;;26.88;68.81
63715;BME280;49858;48.956;9.076;2023-05-07T09:13:23;98676.44;;;27.33;70.02
63715;BME280;49858;48.956;9.076;2023-05-07T09:15:53;98664.13;;;26.81;74.26
63715;BME280;49858;48.956;9.076;2023-05-07T09:18:23;98665.88;;;27.70;69.57
63715;BME280;49858;48.956;9.076;2023-05-07T09:20:52;98664.19;;;27.82;67.41
63715;BME280;49858;48.956;9.076;2023-05-07T09:23:21;98657.91;;;27.77;68.35
63715;BME280;49858;48.956;9.076;2023-05-07T09:25:49;98655.34;;;27.89;68.22
63715;BME280;49858;48.956;9.076;2023-05-07T09:28:23;98651.03;;;28.12;66.88
63715;BME280;49858;48.956;9.076;2023-05-07T09:30:52;98646.88;;;27.89;68.33
63715;BME280;49858;48.956;9.076;2023-05-07T09:33:26;98652.09;;;27.81;65.02
63715;BME280;49858;48.956;9.076;2023-05-07T09:35:56;98646.78;;;28.83;63.67
63715;BME280;49858;48.956;9.076;2023-05-07T09:38:23;98645.72;;;29.04;61.31
63715;BME280;49858;48.956;9.076;2023-05-07T09:41:02;98647.50;;;28.92;61.56
63715;BME280;49858;48.956;9.076;2023-05-07T09:43:33;98651.41;;;28.47;66.26
63715;BME280;49858;48.956;9.076;2023-05-07T09:46:08;98638.38;;;29.36;60.55
63715;BME280;49858;48.956;9.076;2023-05-07T09:48:37;98648.41;;;29.61;60.53
63715;BME280;49858;48.956;9.076;2023-05-07T09:51:15;98646.34;;;29.76;56.98
63715;BME280;49858;48.956;9.076;2023-05-07T09:53:45;98637.16;;;29.13;56.27
63715;BME280;49858;48.956;9.076;2023-05-07T09:56:14;98638.84;;;29.35;58.41
63715;BME280;49858;48.956;9.076;2023-05-07T09:58:43;98634.34;;;29.28;64.61
63715;BME280;49858;48.956;9.076;2023-05-07T10:01:13;98631.94;;;30.95;51.15
63715;BME280;49858;48.956;9.076;2023-05-07T10:03:43;98634.22;;;31.11;50.85
63715;BME280;49858;48.956;9.076;2023-05-07T10:06:13;98630.31;;;31.29;51.20
63715;BME280;49858;48.956;9.076;2023-05-07T10:08:43;98630.13;;;31.38;49.57
63715;BME280;49858;48.956;9.076;2023-05-07T10:11:11;98619.13;;;31.72;45.01
63715;BME280;49858;48.956;9.076;2023-05-07T10:13:41;98621.91;;;32.61;45.26
63715;BME280;49858;48.956;9.076;2023-05-07T10:16:09;98621.88;;;31.87;46.32
63715;BME280;49858;48.956;9.076;2023-05-07T10:18:46;98619.44;;;30.31;46.86
63715;BME280;49858;48.956;9.076;2023-05-07T10:21:20;98617.59;;;31.04;48.44
63715;BME280;49858;48.956;9.076;2023-05-07T10:23:57;98615.53;;;31.77;48.61
63715;BME280;49858;48.956;9.076;2023-05-07T10:26:29;98609.97;;;31.88;46.94
63715;BME280;49858;48.956;9.076;2023-05-07T10:29:03;98605.88;;;32.69;43.23
63715;BME280;49858;48.956;9.076;2023-05-07T10:31:44;98605.03;;;33.12;41.42
63715;BME280;49858;48.956;9.076;2023-05-07T10:34:21;98603.91;;;33.74;38.86
63715;BME280;49858;48.956;9.076;2023-05-07T10:36:51;98602.09;;;32.89;42.96
63715;BME280;49858;48.956;9.076;2023-05-07T10:39:20;98610.19;;;31.33;49.23
63715;BME280;49858;48.956;9.076;2023-05-07T10:41:49;98601.03;;;30.26;49.39
63715;BME280;49858;48.956;9.076;2023-05-07T10:44:26;98612.03;;;29.89;53.87
63715;BME280;49858;48.956;9.076;2023-05-07T10:47:09;98598.03;;;32.16;44.56
63715;BME280;49858;48.956;9.076;2023-05-07T10:50:23;98607.72;;;32.78;43.70
63715;BME280;49858;48.956;9.076;2023-05-07T10:53:22;98594.31;;;33.89;40.53
63715;BME280;49858;48.956;9.076;2023-05-07T10:56:26;98588.34;;;34.09;36.74
63715;BME280;49858;48.956;9.076;2023-05-07T10:59:33;98591.22;;;33.98;38.14
63715;BME280;49858;48.956;9.076;2023-05-07T11:02:15;98588.06;;;33.68;39.25
63715;BME280;49858;48.956;9.076;2023-05-07T11:05:18;98594.63;;;32.92;42.43
63715;BME280;49858;48.956;9.076;2023-05-07T11:07:55;98588.88;;;33.74;39.90
63715;BME280;49858;48.956;9.076;2023-05-07T11:10:48;98595.91;;;32.91;39.68
63715;BME280;49858;48.956;9.076;2023-05-07T11:13:41;98591.06;;;33.14;40.00
63715;BME280;49858;48.956;9.076;2023-05-07T11:16:17;98588.03;;;32.31;41.02
63715;BME280;49858;48.956;9.076;2023-05-07T11:18:46;98590.56;;;31.87;42.63
63715;BME280;49858;48.956;9.076;2023-05-07T11:21:32;98591.63;;;31.63;43.76
63715;BME280;49858;48.956;9.076;2023-05-07T11:24:42;98587.53;;;31.96;41.83
63715;BME280;49858;48.956;9.076;2023-05-07T11:27:12;98586.59;;;31.78;42.93
63715;BME280;49858;48.956;9.076;2023-05-07T11:29:46;98588.56;;;31.41;42.33
63715;BME280;49858;48.956;9.076;2023-05-07T11:32:15;98584.13;;;31.14;43.41
63715;BME280;49858;48.956;9.076;2023-05-07T11:34:51;98577.94;;;28.52;51.50
63715;BME280;49858;48.956;9.076;2023-05-07T11:37:19;98578.66;;;29.99;50.23
63715;BME280;49858;48.956;9.076;2023-05-07T11:40:04;98572.75;;;30.32;49.84
63715;BME280;49858;48.956;9.076;2023-05-07T11:42:33;98579.22;;;30.53;50.16
63715;BME280;49858;48.956;9.076;2023-05-07T11:45:01;98569.88;;;30.88;47.23
63715;BME280;49858;48.956;9.076;2023-05-07T11:47:30;98577.56;;;30.26;48.32
63715;BME280;49858;48.956;9.076;2023-05-07T11:50:03;98575.53;;;31.08;47.91
63715;BME280;49858;48.956;9.076;2023-05-07T11:52:32;98571.34;;;31.50;44.64
63715;BME280;49858;48.956;9.076;2023-05-07T11:55:01;98569.75;;;31.43;46.25
63715;BME280;49858;48.956;9.076;2023-05-07T11:57:32;98566.72;;;32.53;41.03
63715;BME280;49858;48.956;9.076;2023-05-07T12:00:01;98564.47;;;32.25;44.13
63715;BME280;49858;48.956;9.076;2023-05-07T12:02:40;98573.75;;;31.31;47.39
63715;BME280;49858;48.956;9.076;2023-05-07T12:05:08;98578.78;;;31.21;45.20
63715;BME280;49858;48.956;9.076;2023-05-07T12:07:37;98584.69;;;31.70;40.77
63715;BME280;49858;48.956;9.076;2023-05-07T12:10:05;98583.84;;;32.27;39.99
63715;BME280;49858;48.956;9.076;2023-05-07T12:12:39;98589.34;;;33.44;39.22
63715;BME280;49858;48.956;9.076;2023-05-07T12:15:09;98580.28;;;34.24;36.04
63715;BME280;49858;48.956;9.076;2023-05-07T12:17:38;98569.78;;;34.77;35.04
63715;BME280;49858;48.956;9.076;2023-05-07T12:20:07;98570.13;;;34.34;34.14
63715;BME280;49858;48.956;9.076;2023-05-07T12:22:36;98569.09;;;33.42;36.35
63715;BME280;49858;48.956;9.076;2023-05-07T12:25:04;98570.28;;;34.81;32.41
63715;BME280;49858;48.956;9.076;2023-05-07T12:27:36;98556.78;;;35.70;31.48
63715;BME280;49858;48.956;9.076;2023-05-07T12:30:09;98555.94;;;36.35;30.65
63715;BME280;49858;48.956;9.076;2023-05-07T12:32:38;98557.88;;;35.62;31.50
63715;BME280;49858;48.956;9.076;2023-05-07T12:35:06;98560.41;;;35.71;31.25
63715;BME280;49858;48.956;9.076;2023-05-07T12:37:36;98544.66;;;35.89;31.27
63715;BME280;49858;48.956;9.076;2023-05-07T12:40:04;98557.75;;;34.90;31.09
63715;BME280;49858;48.956;9.076;2023-05-07T12:42:35;98557.47;;;33.63;34.74
63715;BME280;49858;48.956;9.076;2023-05-07T12:45:13;98557.19;;;33.49;34.79
63715;BME280;49858;48.956;9.076;2023-05-07T12:47:43;98555.69;;;32.83;32.63
63715;BME280;49858;48.956;9.076;2023-05-07T12:50:12;98551.41;;;33.04;33.06
63715;BME280;49858;48.956;9.076;2023-05-07T12:52:40;98565.25;;;32.74;34.82
63715;BME280;49858;48.956;9.076;2023-05-07T12:55:09;98573.19;;;32.16;34.66
63715;BME280;49858;48.956;9.076;2023-05-07T12:57:38;98576.00;;;31.01;37.73
63715;BME280;49858;48.956;9.076;2023-05-07T13:00:07;98585.41;;;30.01;41.99
63715;BME280;49858;48.956;9.076;2023-05-07T13:02:39;98572.94;;;29.78;41.03
63715;BME280;49858;48.956;9.076;2023-05-07T13:05:08;98584.91;;;29.29;47.93
63715;BME280;49858;48.956;9.076;2023-05-07T13:07:36;98577.94;;;28.76;49.48
63715;BME280;49858;48.956;9.076;2023-05-07T13:10:05;98575.75;;;28.23;51.52
63715;BME280;49858;48.956;9.076;2023-05-07T13:12:33;98578.50;;;27.99;50.22
63715;BME280;49858;48.956;9.076;2023-05-07T13:15:01;98587.19;;;26.31;70.06